sensor_id;sensor_type;location;lat;lon;timestamp;pressure;altitude;pressure_sealevel;temperature;humidity
36502;BME280;25393;46.108;3.390;2022-08-19T00:02:05;97912.97;;;18.09;100.00
36502;BME280;25393;46.108;3.390;2022-08-19T00:04:34;97893.31;;;17.97;100.00
36502;BME280;25393;46.108;3.390;2022-08-19T00:07:07;97920.31;;;17.95;100.00
36502;BME280;25393;46.108;3.390;2022-08-19T00:09:34;97902.63;;;17.88;100.00
36502;BME280;25393;46.108;3.390;2022-08-19T00:12:01;97921.59;;;18.18;100.00
36502;BME280;25393;46.108;3.390;2022-08-19T00:14:29;97928.44;;;18.14;100.00
36502;BME280;25393;46.108;3.390;2022-08-19T00:16:59;97917.44;;;18.22;100.00
36502;BME280;25393;46.108;3.390;2022-08-19T00:19:29;97907.41;;;18.11;100.00
36502;BME280;25393;46.108;3.390;2022-08-19T00:21:56;97917.97;;;18.06;100.00
36502;BME280;25393;46.108;3.390;2022-08-19T00:24:26;97881.97;;;17.95;100.00
36502;BME280;25393;46.108;3.390;2022-08-19T00:26:55;97897.00;;;17.96;100.00
36502;BME280;25393;46.108;3.390;2022-08-19T00:29:43;97905.06;;;17.96;100.00
36502;BME280;25393;46.108;3.390;2022-08-19T00:32:11;97904.56;;;18.06;100.00
36502;BME280;25393;46.108;3.390;2022-08-19T00:34:39;97891.47;;;17.91;100.00
36502;BME280;25393;46.108;3.390;2022-08-19T00:37:06;97897.56;;;17.80;100.00
36502;BME280;25393;46.108;3.390;2022-08-19T00:39:33;97889.34;;;17.75;100.00
36502;BME280;25393;46.108;3.390;2022-08-19T00:42:00;97884.88;;;17.69;100.00
36502;BME280;25393;46.108;3.390;2022-08-19T00:44:28;97899.03;;;17.76;100.00
36502;BME280;25393;46.108;3.390;2022-08-19T00:46:58;97892.84;;;17.75;100.00
36502;BME280;25393;46.108;3.390;2022-08-19T00:49:57;97905.25;;;18.01;100.00
36502;BME280;25393;46.108;3.390;2022-08-19T00:52:27;97903.78;;;17.98;100.00
36502;BME280;25393;46.108;3.390;2022-08-19T00:54:57;97922.50;;;18.30;100.00
36502;BME280;25393;46.108;3.390;2022-08-19T00:57:28;97918.63;;;18.26;100.00
36502;BME280;25393;46.108;3.390;2022-08-19T00:59:58;97909.09;;;18.30;100.00
36502;BME280;25393;46.108;3.390;2022-08-19T01:02:30;97905.38;;;18.06;100.00
36502;BME280;25393;46.108;3.390;2022-08-19T01:04:58;97893.50;;;17.95;100.00
36502;BME280;25393;46.108;3.390;2022-08-19T01:07:25;97892.31;;;17.91;100.00
36502;BME280;25393;46.108;3.390;2022-08-19T01:09:53;97916.22;;;17.93;100.00
36502;BME280;25393;46.108;3.390;2022-08-19T01:12:22;97911.22;;;17.72;100.00
36502;BME280;25393;46.108;3.390;2022-08-19T01:14:49;97918.25;;;17.66;100.00
36502;BME280;25393;46.108;3.390;2022-08-19T01:17:17;97923.94;;;17.83;100.00
36502;BME280;25393;46.108;3.390;2022-08-19T01:19:46;97919.91;;;17.67;100.00
36502;BME280;25393;46.108;3.390;2022-08-19T01:24:58;97933.53;;;17.66;100.00
36502;BME280;25393;46.108;3.390;2022-08-19T01:27:25;97931.88;;;17.65;100.00
36502;BME280;25393;46.108;3.390;2022-08-19T01:30:00;97931.63;;;17.73;100.00
36502;BME280;25393;46.108;3.390;2022-08-19T01:32:27;97915.22;;;17.56;100.00
36502;BME280;25393;46.108;3.390;2022-08-19T01:35:00;97919.38;;;17.52;100.00
36502;BME280;25393;46.108;3.390;2022-08-19T01:37:29;97908.13;;;17.37;100.00
36502;BME280;25393;46.108;3.390;2022-08-19T01:40:00;97905.09;;;17.27;100.00
36502;BME280;25393;46.108;3.390;2022-08-19T01:42:29;97916.94;;;17.44;100.00
36502;BME280;25393;46.108;3.390;2022-08-19T01:44:58;97927.41;;;17.59;100.00
36502;BME280;25393;46.108;3.390;2022-08-19T01:47:25;97927.41;;;17.59;100.00
36502;BME280;25393;46.108;3.390;2022-08-19T01:49:55;97914.69;;;17.41;100.00
36502;BME280;25393;46.108;3.390;2022-08-19T01:52:21;97902.41;;;17.27;100.00
36502;BME280;25393;46.108;3.390;2022-08-19T01:54:48;97926.16;;;17.55;100.00
36502;BME280;25393;46.108;3.390;2022-08-19T01:57:15;97939.56;;;17.55;100.00
36502;BME280;25393;46.108;3.390;2022-08-19T01:59:42;97921.47;;;17.43;100.00
36502;BME280;25393;46.108;3.390;2022-08-19T02:02:11;97935.84;;;17.56;100.00
36502;BME280;25393;46.108;3.390;2022-08-19T02:04:38;97939.28;;;17.69;100.00
36502;BME280;25393;46.108;3.390;2022-08-19T02:07:05;97922.84;;;17.59;100.00
36502;BME280;25393;46.108;3.390;2022-08-19T02:09:33;97923.53;;;17.48;100.00
36502;BME280;25393;46.108;3.390;2022-08-19T02:12:00;97932.13;;;17.57;100.00
36502;BME280;25393;46.108;3.390;2022-08-19T02:14:27;97935.44;;;17.52;100.00
36502;BME280;25393;46.108;3.390;2022-08-19T02:16:55;97945.72;;;17.62;100.00
36502;BME280;25393;46.108;3.390;2022-08-19T02:19:22;97941.16;;;17.69;100.00
36502;BME280;25393;46.108;3.390;2022-08-19T02:21:49;97930.69;;;17.61;100.00
36502;BME280;25393;46.108;3.390;2022-08-19T02:24:16;97937.00;;;17.66;100.00
36502;BME280;25393;46.108;3.390;2022-08-19T02:26:42;97912.13;;;17.53;100.00
36502;BME280;25393;46.108;3.390;2022-08-19T02:29:09;97938.19;;;17.77;100.00
36502;BME280;25393;46.108;3.390;2022-08-19T02:31:36;97945.19;;;17.78;100.00
36502;BME280;25393;46.108;3.390;2022-08-19T02:34:02;97955.88;;;17.84;100.00
36502;BME280;25393;46.108;3.390;2022-08-19T02:36:32;97935.16;;;17.67;100.00
36502;BME280;25393;46.108;3.390;2022-08-19T02:38:59;97941.97;;;17.69;100.00
36502;BME280;25393;46.108;3.390;2022-08-19T02:41:32;97946.47;;;17.75;100.00
36502;BME280;25393;46.108;3.390;2022-08-19T02:44:03;97943.53;;;17.77;100.00
36502;BME280;25393;46.108;3.390;2022-08-19T02:46:50;97928.38;;;17.64;100.00
36502;BME280;25393;46.108;3.390;2022-08-19T02:49:18;97954.44;;;17.82;100.00
36502;BME280;25393;46.108;3.390;2022-08-19T02:51:45;97937.53;;;17.81;100.00
36502;BME280;25393;46.108;3.390;2022-08-19T02:54:13;97949.72;;;17.77;100.00
36502;BME280;25393;46.108;3.390;2022-08-19T02:56:42;97943.59;;;17.70;100.00
36502;BME280;25393;46.108;3.390;2022-08-19T02:59:09;97933.34;;;17.61;100.00
36502;BME280;25393;46.108;3.390;2022-08-19T03:01:38;97955.38;;;17.69;100.00
36502;BME280;25393;46.108;3.390;2022-08-19T03:04:10;97945.72;;;17.62;100.00
36502;BME280;25393;46.108;3.390;2022-08-19T03:06:39;97952.69;;;17.69;100.00
36502;BME280;25393;46.108;3.390;2022-08-19T03:09:07;97938.72;;;17.54;100.00
36502;BME280;25393;46.108;3.390;2022-08-19T03:11:33;97923.53;;;17.48;100.00
36502;BME280;25393;46.108;3.390;2022-08-19T03:14:05;97935.00;;;17.55;100.00
36502;BME280;25393;46.108;3.390;2022-08-19T03:16:48;97960.50;;;17.71;100.00
36502;BME280;25393;46.108;3.390;2022-08-19T03:19:17;97959.91;;;17.69;100.00
36502;BME280;25393;46.108;3.390;2022-08-19T03:21:44;97967.66;;;17.77;100.00
36502;BME280;25393;46.108;3.390;2022-08-19T03:24:13;97938.53;;;17.56;100.00
36502;BME280;25393;46.108;3.390;2022-08-19T03:26:42;97974.53;;;17.73;100.00
36502;BME280;25393;46.108;3.390;2022-08-19T03:29:11;97979.09;;;17.66;100.00
36502;BME280;25393;46.108;3.390;2022-08-19T03:31:39;97972.09;;;17.65;100.00
36502;BME280;25393;46.108;3.390;2022-08-19T03:34:24;97981.97;;;17.64;100.00
36502;BME280;25393;46.108;3.390;2022-08-19T03:36:54;97975.66;;;17.52;100.00
36502;BME280;25393;46.108;3.390;2022-08-19T03:39:23;97976.28;;;17.47;100.00
36502;BME280;25393;46.108;3.390;2022-08-19T03:41:51;97995.41;;;17.58;100.00
36502;BME280;25393;46.108;3.390;2022-08-19T03:44:38;97978.31;;;17.45;100.00
36502;BME280;25393;46.108;3.390;2022-08-19T03:47:05;97992.13;;;17.56;100.00
36502;BME280;25393;46.108;3.390;2022-08-19T03:49:32;97993.75;;;17.57;100.00
36502;BME280;25393;46.108;3.390;2022-08-19T03:52:02;98000.16;;;17.56;100.00
36502;BME280;25393;46.108;3.390;2022-08-19T03:54:31;98004.47;;;17.57;100.00
36502;BME280;25393;46.108;3.390;2022-08-19T03:56:58;97989.03;;;17.52;100.00
36502;BME280;25393;46.108;3.390;2022-08-19T03:59:28;97991.31;;;17.48;100.00
36502;BME280;25393;46.108;3.390;2022-08-19T04:01:58;97983.47;;;17.47;100.00
36502;BME280;25393;46.108;3.390;2022-08-19T04:04:25;97965.63;;;17.34;100.00
36502;BME280;25393;46.108;3.390;2022-08-19T04:06:55;98006.13;;;17.58;100.00
36502;BME280;25393;46.108;3.390;2022-08-19T04:09:22;98009.84;;;17.50;100.00
36502;BME280;25393;46.108;3.390;2022-08-19T04:11:51;98005.09;;;17.59;100.00
36502;BME280;25393;46.108;3.390;2022-08-19T04:14:22;98008.59;;;17.59;100.00
36502;BME280;25393;46.108;3.390;2022-08-19T04:16:51;98002.66;;;17.44;100.00
36502;BME280;25393;46.108;3.390;2022-08-19T04:19:18;98013.16;;;17.52;100.00
36502;BME280;25393;46.108;3.390;2022-08-19T04:21:48;98025.44;;;17.66;100.00
36502;BME280;25393;46.108;3.390;2022-08-19T04:24:16;98009.03;;;17.49;100.00
36502;BME280;25393;46.108;3.390;2022-08-19T04:26:43;98000.91;;;17.18;100.00
36502;BME280;25393;46.108;3.390;2022-08-19T04:29:18;98020.44;;;17.32;100.00
36502;BME280;25393;46.108;3.390;2022-08-19T04:31:46;98000.09;;;17.18;100.00
36502;BME280;25393;46.108;3.390;2022-08-19T04:34:14;98021.31;;;17.19;100.00
36502;BME280;25393;46.108;3.390;2022-08-19T04:36:42;98002.78;;;17.11;100.00
36502;BME280;25393;46.108;3.390;2022-08-19T04:39:16;98043.56;;;17.20;100.00
36502;BME280;25393;46.108;3.390;2022-08-19T04:41:43;98016.25;;;16.85;100.00
36502;BME280;25393;46.108;3.390;2022-08-19T04:44:34;98037.03;;;16.89;100.00
36502;BME280;25393;46.108;3.390;2022-08-19T04:47:10;98063.13;;;17.07;100.00
36502;BME280;25393;46.108;3.390;2022-08-19T04:49:37;98048.56;;;16.90;100.00
36502;BME280;25393;46.108;3.390;2022-08-19T04:52:06;98022.03;;;16.69;100.00
36502;BME280;25393;46.108;3.390;2022-08-19T04:54:34;98049.56;;;16.89;100.00
36502;BME280;25393;46.108;3.390;2022-08-19T04:57:07;98058.41;;;16.96;100.00
36502;BME280;25393;46.108;3.390;2022-08-19T04:59:53;98024.91;;;16.74;100.00
36502;BME280;25393;46.108;3.390;2022-08-19T05:02:20;98036.00;;;16.84;100.00
36502;BME280;25393;46.108;3.390;2022-08-19T05:04:59;98069.34;;;17.01;100.00
36502;BME280;25393;46.108;3.390;2022-08-19T05:07:27;98044.88;;;16.84;100.00
36502;BME280;25393;46.108;3.390;2022-08-19T05:09:54;98068.72;;;17.06;100.00
36502;BME280;25393;46.108;3.390;2022-08-19T05:12:25;98080.47;;;16.98;100.00
36502;BME280;25393;46.108;3.390;2022-08-19T05:14:55;98074.09;;;16.99;100.00
36502;BME280;25393;46.108;3.390;2022-08-19T05:17:34;98049.97;;;16.92;100.00
36502;BME280;25393;46.108;3.390;2022-08-19T05:20:05;98056.19;;;16.86;100.00
36502;BME280;25393;46.108;3.390;2022-08-19T05:22:54;98044.47;;;16.81;100.00
36502;BME280;25393;46.108;3.390;2022-08-19T05:25:21;98080.47;;;16.98;100.00
36502;BME280;25393;46.108;3.390;2022-08-19T05:27:49;98084.97;;;17.04;100.00
36502;BME280;25393;46.108;3.390;2022-08-19T05:30:16;98086.00;;;17.03;100.00
36502;BME280;25393;46.108;3.390;2022-08-19T05:32:45;98099.81;;;17.00;100.00
36502;BME280;25393;46.108;3.390;2022-08-19T05:35:12;98095.28;;;17.01;100.00
36502;BME280;25393;46.108;3.390;2022-08-19T05:37:39;98107.44;;;17.10;100.00
36502;BME280;25393;46.108;3.390;2022-08-19T05:40:10;98092.59;;;17.14;100.00
36502;BME280;25393;46.108;3.390;2022-08-19T05:42:38;98074.69;;;17.01;100.00
36502;BME280;25393;46.108;3.390;2022-08-19T05:45:06;98100.38;;;17.28;100.00
36502;BME280;25393;46.108;3.390;2022-08-19T05:47:34;98096.94;;;17.08;100.00
36502;BME280;25393;46.108;3.390;2022-08-19T05:50:10;98100.63;;;17.27;100.00
36502;BME280;25393;46.108;3.390;2022-08-19T05:52:42;98079.19;;;17.14;100.00
36502;BME280;25393;46.108;3.390;2022-08-19T05:55:18;98113.75;;;17.35;100.00
36502;BME280;25393;46.108;3.390;2022-08-19T05:57:48;98101.81;;;17.24;100.00
36502;BME280;25393;46.108;3.390;2022-08-19T06:00:15;98110.06;;;17.29;100.00
36502;BME280;25393;46.108;3.390;2022-08-19T06:02:49;98124.63;;;17.53;100.00
36502;BME280;25393;46.108;3.390;2022-08-19T06:05:18;98128.75;;;17.49;100.00
36502;BME280;25393;46.108;3.390;2022-08-19T06:07:46;98117.88;;;17.44;100.00
36502;BME280;25393;46.108;3.390;2022-08-19T06:10:13;98090.50;;;17.29;100.00
36502;BME280;25393;46.108;3.390;2022-08-19T06:12:40;98109.84;;;17.37;100.00
36502;BME280;25393;46.108;3.390;2022-08-19T06:15:12;98125.88;;;17.64;100.00
36502;BME280;25393;46.108;3.390;2022-08-19T06:17:41;98110.66;;;17.58;100.00
36502;BME280;25393;46.108;3.390;2022-08-19T06:20:13;98126.41;;;17.85;100.00
36502;BME280;25393;46.108;3.390;2022-08-19T06:22:43;98130.88;;;17.98;100.00
36502;BME280;25393;46.108;3.390;2022-08-19T06:25:11;98137.03;;;18.05;100.00
36502;BME280;25393;46.108;3.390;2022-08-19T06:27:41;98117.94;;;17.88;100.00
36502;BME280;25393;46.108;3.390;2022-08-19T06:30:28;98145.72;;;18.07;100.00
36502;BME280;25393;46.108;3.390;2022-08-19T06:32:54;98120.34;;;18.03;100.00
36502;BME280;25393;46.108;3.390;2022-08-19T06:35:21;98131.88;;;18.10;100.00
36502;BME280;25393;46.108;3.390;2022-08-19T06:37:48;98136.94;;;18.25;100.00
36502;BME280;25393;46.108;3.390;2022-08-19T06:40:14;98146.78;;;18.37;100.00
36502;BME280;25393;46.108;3.390;2022-08-19T06:42:41;98136.03;;;18.37;100.00
36502;BME280;25393;46.108;3.390;2022-08-19T06:45:19;98149.41;;;18.44;100.00
36502;BME280;25393;46.108;3.390;2022-08-19T06:47:51;98154.25;;;18.67;100.00
36502;BME280;25393;46.108;3.390;2022-08-19T06:50:18;98165.78;;;18.74;100.00
36502;BME280;25393;46.108;3.390;2022-08-19T06:52:45;98138.53;;;18.70;100.00
36502;BME280;25393;46.108;3.390;2022-08-19T06:55:16;98136.56;;;18.84;100.00
36502;BME280;25393;46.108;3.390;2022-08-19T06:57:44;98141.75;;;18.79;100.00
36502;BME280;25393;46.108;3.390;2022-08-19T07:00:12;98139.16;;;18.97;100.00
36502;BME280;25393;46.108;3.390;2022-08-19T07:02:43;98172.19;;;19.22;100.00
36502;BME280;25393;46.108;3.390;2022-08-19T07:05:21;98158.63;;;19.17;100.00
36502;BME280;25393;46.108;3.390;2022-08-19T07:07:48;98153.63;;;19.21;100.00
36502;BME280;25393;46.108;3.390;2022-08-19T07:10:16;98150.50;;;19.24;100.00
36502;BME280;25393;46.108;3.390;2022-08-19T07:12:43;98162.28;;;19.23;100.00
36502;BME280;25393;46.108;3.390;2022-08-19T07:15:11;98172.13;;;19.29;100.00
36502;BME280;25393;46.108;3.390;2022-08-19T07:17:41;98181.25;;;19.28;100.00
36502;BME280;25393;46.108;3.390;2022-08-19T07:20:10;98163.81;;;19.12;100.00
36502;BME280;25393;46.108;3.390;2022-08-19T07:22:38;98181.84;;;19.05;100.00
36502;BME280;25393;46.108;3.390;2022-08-19T07:25:08;98190.09;;;19.10;100.00
36502;BME280;25393;46.108;3.390;2022-08-19T07:27:36;98187.66;;;19.02;100.00
36502;BME280;25393;46.108;3.390;2022-08-19T07:30:07;98189.91;;;19.05;100.00
36502;BME280;25393;46.108;3.390;2022-08-19T07:32:41;98183.66;;;19.11;100.00
36502;BME280;25393;46.108;3.390;2022-08-19T07:35:09;98188.59;;;19.14;100.00
36502;BME280;25393;46.108;3.390;2022-08-19T07:37:36;98196.66;;;19.14;100.00
36502;BME280;25393;46.108;3.390;2022-08-19T07:40:07;98193.94;;;19.21;100.00
36502;BME280;25393;46.108;3.390;2022-08-19T07:42:35;98193.16;;;19.38;100.00
36502;BME280;25393;46.108;3.390;2022-08-19T07:45:03;98194.84;;;19.58;100.00
36502;BME280;25393;46.108;3.390;2022-08-19T07:47:29;98187.25;;;19.73;100.00
36502;BME280;25393;46.108;3.390;2022-08-19T07:50:16;98196.66;;;20.00;100.00
36502;BME280;25393;46.108;3.390;2022-08-19T07:52:45;98198.44;;;20.06;100.00
36502;BME280;25393;46.108;3.390;2022-08-19T07:55:17;98204.72;;;20.00;100.00
36502;BME280;25393;46.108;3.390;2022-08-19T07:58:09;98178.06;;;19.80;100.00
36502;BME280;25393;46.108;3.390;2022-08-19T08:00:36;98198.22;;;19.89;100.00
36502;BME280;25393;46.108;3.390;2022-08-19T08:03:05;98180.22;;;19.90;100.00
36502;BME280;25393;46.108;3.390;2022-08-19T08:05:32;98184.03;;;20.19;100.00
36502;BME280;25393;46.108;3.390;2022-08-19T08:08:17;98192.03;;;20.85;100.00
36502;BME280;25393;46.108;3.390;2022-08-19T08:10:53;98196.38;;;20.98;100.00
36502;BME280;25393;46.108;3.390;2022-08-19T08:13:24;98192.28;;;20.95;97.74
36502;BME280;25393;46.108;3.390;2022-08-19T08:15:52;98178.09;;;20.88;99.00
36502;BME280;25393;46.108;3.390;2022-08-19T08:18:21;98178.22;;;20.93;97.63
36502;BME280;25393;46.108;3.390;2022-08-19T08:20:54;98169.44;;;20.86;94.32
36502;BME280;25393;46.108;3.390;2022-08-19T08:23:20;98176.88;;;21.37;95.28
36502;BME280;25393;46.108;3.390;2022-08-19T08:25:55;98203.59;;;22.08;89.87
36502;BME280;25393;46.108;3.390;2022-08-19T08:28:24;98189.84;;;22.50;86.99
36502;BME280;25393;46.108;3.390;2022-08-19T08:30:54;98198.47;;;23.08;84.98
36502;BME280;25393;46.108;3.390;2022-08-19T08:33:24;98167.28;;;23.17;80.56
36502;BME280;25393;46.108;3.390;2022-08-19T08:36:07;98203.75;;;23.31;79.12
36502;BME280;25393;46.108;3.390;2022-08-19T08:38:35;98206.25;;;22.88;79.00
36502;BME280;25393;46.108;3.390;2022-08-19T08:43:40;98194.88;;;23.03;85.81
36502;BME280;25393;46.108;3.390;2022-08-19T08:46:14;98198.25;;;23.26;82.23
36502;BME280;25393;46.108;3.390;2022-08-19T08:51:51;98215.56;;;23.25;78.29
36502;BME280;25393;46.108;3.390;2022-08-19T08:54:30;98201.63;;;23.00;78.08
36502;BME280;25393;46.108;3.390;2022-08-19T08:57:00;98213.72;;;22.98;81.34
36502;BME280;25393;46.108;3.390;2022-08-19T08:59:31;98224.84;;;23.46;80.14
36502;BME280;25393;46.108;3.390;2022-08-19T09:02:01;98226.03;;;23.72;78.82
36502;BME280;25393;46.108;3.390;2022-08-19T09:04:28;98219.88;;;23.76;79.49
36502;BME280;25393;46.108;3.390;2022-08-19T09:07:08;98215.88;;;23.62;77.33
36502;BME280;25393;46.108;3.390;2022-08-19T09:10:28;98223.75;;;23.14;77.84
36502;BME280;25393;46.108;3.390;2022-08-19T09:15:40;98209.72;;;22.44;80.93
36502;BME280;25393;46.108;3.390;2022-08-19T09:18:13;98218.22;;;22.24;83.53
36502;BME280;25393;46.108;3.390;2022-08-19T09:20:45;98203.59;;;22.08;86.15
36502;BME280;25393;46.108;3.390;2022-08-19T09:23:14;98235.00;;;22.26;83.92
36502;BME280;25393;46.108;3.390;2022-08-19T09:25:41;98203.44;;;22.26;81.63
36502;BME280;25393;46.108;3.390;2022-08-19T09:28:08;98201.78;;;22.65;82.48
36502;BME280;25393;46.108;3.390;2022-08-19T09:30:48;98217.19;;;23.26;79.22
36502;BME280;25393;46.108;3.390;2022-08-19T09:33:18;98204.03;;;23.47;76.52
36502;BME280;25393;46.108;3.390;2022-08-19T09:35:45;98198.19;;;23.55;75.92
36502;BME280;25393;46.108;3.390;2022-08-19T09:38:20;98202.84;;;24.36;72.77
36502;BME280;25393;46.108;3.390;2022-08-19T09:40:46;98206.25;;;25.33;63.19
36502;BME280;25393;46.108;3.390;2022-08-19T09:43:13;98201.03;;;25.54;64.91
36502;BME280;25393;46.108;3.390;2022-08-19T09:45:40;98214.16;;;25.35;64.70
36502;BME280;25393;46.108;3.390;2022-08-19T09:48:06;98213.34;;;24.81;66.36
36502;BME280;25393;46.108;3.390;2022-08-19T09:50:36;98223.44;;;24.37;70.65
36502;BME280;25393;46.108;3.390;2022-08-19T09:53:18;98196.53;;;24.30;74.46
36502;BME280;25393;46.108;3.390;2022-08-19T09:55:45;98195.50;;;25.44;66.94
36502;BME280;25393;46.108;3.390;2022-08-19T09:58:11;98202.88;;;26.37;64.03
36502;BME280;25393;46.108;3.390;2022-08-19T10:00:39;98202.91;;;26.42;58.36
36502;BME280;25393;46.108;3.390;2022-08-19T10:03:06;98206.88;;;25.77;59.51
36502;BME280;25393;46.108;3.390;2022-08-19T10:05:34;98211.25;;;25.47;61.83
36502;BME280;25393;46.108;3.390;2022-08-19T10:08:32;98198.50;;;26.36;61.23
36502;BME280;25393;46.108;3.390;2022-08-19T10:11:01;98190.53;;;27.17;57.23
36502;BME280;25393;46.108;3.390;2022-08-19T10:13:48;98195.03;;;28.27;52.63
36502;BME280;25393;46.108;3.390;2022-08-19T10:16:18;98187.50;;;28.58;53.44
36502;BME280;25393;46.108;3.390;2022-08-19T10:18:46;98182.16;;;29.31;49.56
36502;BME280;25393;46.108;3.390;2022-08-19T10:21:20;98198.91;;;29.77;48.24
36502;BME280;25393;46.108;3.390;2022-08-19T10:23:53;98193.00;;;29.41;45.87
36502;BME280;25393;46.108;3.390;2022-08-19T10:26:29;98179.06;;;29.04;49.85
36502;BME280;25393;46.108;3.390;2022-08-19T10:28:56;98196.00;;;28.57;50.40
36502;BME280;25393;46.108;3.390;2022-08-19T10:31:28;98192.72;;;27.60;51.66
36502;BME280;25393;46.108;3.390;2022-08-19T10:34:15;98199.16;;;28.05;51.38
36502;BME280;25393;46.108;3.390;2022-08-19T10:36:53;98192.03;;;29.27;50.45
36502;BME280;25393;46.108;3.390;2022-08-19T10:39:26;98184.78;;;29.70;49.01
36502;BME280;25393;46.108;3.390;2022-08-19T10:41:56;98188.47;;;29.27;47.49
36502;BME280;25393;46.108;3.390;2022-08-19T10:44:23;98200.38;;;28.53;49.57
36502;BME280;25393;46.108;3.390;2022-08-19T10:46:58;98198.16;;;27.35;52.11
36502;BME280;25393;46.108;3.390;2022-08-19T10:49:26;98205.31;;;26.39;55.16
36502;BME280;25393;46.108;3.390;2022-08-19T10:51:53;98212.13;;;25.89;58.20
36502;BME280;25393;46.108;3.390;2022-08-19T10:54:44;98192.16;;;25.31;60.25
36502;BME280;25393;46.108;3.390;2022-08-19T10:57:33;98207.06;;;25.02;62.84
36502;BME280;25393;46.108;3.390;2022-08-19T11:00:21;98221.34;;;24.66;66.49
36502;BME280;25393;46.108;3.390;2022-08-19T11:02:50;98228.00;;;23.76;70.49
36502;BME280;25393;46.108;3.390;2022-08-19T11:05:17;98210.47;;;23.29;73.44
36502;BME280;25393;46.108;3.390;2022-08-19T11:07:44;98221.97;;;22.91;80.38
36502;BME280;25393;46.108;3.390;2022-08-19T11:10:14;98238.31;;;22.68;82.18
36502;BME280;25393;46.108;3.390;2022-08-19T11:12:46;98224.91;;;22.61;85.25
36502;BME280;25393;46.108;3.390;2022-08-19T11:15:13;98249.13;;;22.56;89.59
36502;BME280;25393;46.108;3.390;2022-08-19T11:17:40;98239.84;;;22.52;89.97
36502;BME280;25393;46.108;3.390;2022-08-19T11:20:13;98249.41;;;22.43;93.09
36502;BME280;25393;46.108;3.390;2022-08-19T11:22:41;98238.31;;;22.56;90.48
36502;BME280;25393;46.108;3.390;2022-08-19T11:25:09;98239.50;;;22.88;89.73
36502;BME280;25393;46.108;3.390;2022-08-19T11:27:40;98237.06;;;23.49;83.17
36502;BME280;25393;46.108;3.390;2022-08-19T11:30:12;98243.84;;;23.68;79.94
36502;BME280;25393;46.108;3.390;2022-08-19T11:32:41;98237.59;;;23.51;81.00
36502;BME280;25393;46.108;3.390;2022-08-19T11:35:14;98227.66;;;23.23;81.04
36502;BME280;25393;46.108;3.390;2022-08-19T11:37:42;98229.19;;;23.02;80.84
36502;BME280;25393;46.108;3.390;2022-08-19T11:40:09;98237.41;;;23.07;80.75
36502;BME280;25393;46.108;3.390;2022-08-19T11:42:36;98229.63;;;23.11;79.64
36502;BME280;25393;46.108;3.390;2022-08-19T11:45:27;98240.47;;;23.44;80.52
36502;BME280;25393;46.108;3.390;2022-08-19T11:47:54;98231.28;;;23.62;78.95
36502;BME280;25393;46.108;3.390;2022-08-19T11:50:22;98243.13;;;23.94;78.87
36502;BME280;25393;46.108;3.390;2022-08-19T11:52:52;98243.91;;;24.11;75.22
36502;BME280;25393;46.108;3.390;2022-08-19T11:55:20;98242.09;;;24.33;74.67
36502;BME280;25393;46.108;3.390;2022-08-19T11:57:47;98237.44;;;24.12;74.01
36502;BME280;25393;46.108;3.390;2022-08-19T12:00:15;98245.34;;;23.97;74.11
36502;BME280;25393;46.108;3.390;2022-08-19T12:02:45;98216.13;;;23.77;74.09
36502;BME280;25393;46.108;3.390;2022-08-19T12:05:11;98242.34;;;23.77;76.25
36502;BME280;25393;46.108;3.390;2022-08-19T12:07:41;98232.59;;;23.76;77.66
36502;BME280;25393;46.108;3.390;2022-08-19T12:10:09;98250.13;;;23.90;76.30
36502;BME280;25393;46.108;3.390;2022-08-19T12:12:37;98222.28;;;23.56;78.07
36502;BME280;25393;46.108;3.390;2022-08-19T12:15:09;98252.28;;;23.55;78.44
36502;BME280;25393;46.108;3.390;2022-08-19T12:17:38;98235.72;;;23.34;79.22
36502;BME280;25393;46.108;3.390;2022-08-19T12:20:05;98237.16;;;23.09;81.16
36502;BME280;25393;46.108;3.390;2022-08-19T12:22:46;98246.84;;;23.21;82.08
36502;BME280;25393;46.108;3.390;2022-08-19T12:25:19;98226.28;;;23.20;81.96
36502;BME280;25393;46.108;3.390;2022-08-19T12:27:49;98236.75;;;23.17;81.55
36502;BME280;25393;46.108;3.390;2022-08-19T12:30:23;98258.66;;;23.32;82.81
36502;BME280;25393;46.108;3.390;2022-08-19T12:32:51;98259.53;;;23.37;83.72
36502;BME280;25393;46.108;3.390;2022-08-19T12:35:18;98230.78;;;23.65;81.17
36502;BME280;25393;46.108;3.390;2022-08-19T12:37:48;98252.97;;;24.00;78.25
36502;BME280;25393;46.108;3.390;2022-08-19T12:40:23;98244.91;;;24.44;76.83
36502;BME280;25393;46.108;3.390;2022-08-19T12:42:52;98236.38;;;24.78;74.81
36502;BME280;25393;46.108;3.390;2022-08-19T12:45:19;98225.28;;;25.07;71.75
36502;BME280;25393;46.108;3.390;2022-08-19T12:47:46;98236.84;;;25.51;68.87
36502;BME280;25393;46.108;3.390;2022-08-19T12:50:15;98237.13;;;25.54;69.59
36502;BME280;25393;46.108;3.390;2022-08-19T12:52:41;98239.94;;;25.38;69.43
36502;BME280;25393;46.108;3.390;2022-08-19T12:55:11;98215.56;;;25.11;68.74
36502;BME280;25393;46.108;3.390;2022-08-19T12:57:40;98228.38;;;25.47;65.81
36502;BME280;25393;46.108;3.390;2022-08-19T13:00:12;98228.47;;;25.57;65.85
36502;BME280;25393;46.108;3.390;2022-08-19T13:02:43;98237.75;;;25.66;66.44
36502;BME280;25393;46.108;3.390;2022-08-19T13:05:15;98230.25;;;25.83;66.15
36502;BME280;25393;46.108;3.390;2022-08-19T13:07:44;98220.41;;;25.72;65.79
36502;BME280;25393;46.108;3.390;2022-08-19T13:10:13;98219.38;;;25.78;63.06
36502;BME280;25393;46.108;3.390;2022-08-19T13:12:42;98225.28;;;26.12;61.26
36502;BME280;25393;46.108;3.390;2022-08-19T13:15:09;98226.88;;;26.03;63.06
36502;BME280;25393;46.108;3.390;2022-08-19T13:17:37;98218.09;;;25.91;62.95
36502;BME280;25393;46.108;3.390;2022-08-19T13:20:08;98226.13;;;25.71;63.55
36502;BME280;25393;46.108;3.390;2022-08-19T13:22:35;98216.63;;;25.10;65.71